Colby, KS

11:16 PM CDT on July 22, 2017 (GMT -0500)
Shaltz

Weather History for KCBK - December, 2012

Change the Weather History Date:

Tuesday, December 18, 2012

  Actual Average (KGLD) Record (KGLD)
Temperature  
Mean Temperature 40 °F -  
Max Temperature 50 °F 43 °F 76 °F (1979)
Min Temperature 30 °F 17 °F -15 °F (1924)
Degree Days  
Heating Degree Days 25    
Moisture  
Dew Point 21 °F    
Average Humidity 54    
Maximum Humidity 81    
Minimum Humidity 24    
Precipitation  
Precipitation 0.00 in - - ()
Sea Level Pressure  
Sea Level Pressure 29.72 in    
Wind  
Wind Speed 12 mph (NW)    
Max Wind Speed 25 mph    
Max Gust Speed 32 mph    
Visibility 10 miles    
Events      
Averages and records for this station are not official NWS values.
T = Trace of Precipitation, MM = Missing Value Source: NWS Daily Summary

Daily Weather History Graph

Daily Weather History Graph

Search for Another Location

Airport or City:

Trip Planner

Search our weather history database for the weather conditions in past years. The results will help you decide how hot, cold, wet, or windy it might be!

Date:

Astronomy

Dec. 18, 2012 Rise Set
Actual Time 7:59 AM CST 5:22 PM CST
Civil Twilight 7:29 AM CST 5:53 PM CST
Nautical Twilight 6:55 AM CST 6:26 PM CST
Astronomical Twilight 6:22 AM CST 6:59 PM CST
Moon 11:41 AM CST (12/18) 11:49 PM CST (12/18)
Length of Visible Light 10h 23m
Length of Day
9h 23m
Waxing Crescent, 35% of the Moon is Illuminated
Dec 18
Waxing Crescent
Dec 19
First Quarter
Dec 28
Full
Jan 4
Last Quarter
Jan 11
New

Hourly Weather History & Observations

Time (CST) Temp. Windchill Dew Point Humidity Pressure Visibility Wind Dir Wind Speed Gust Speed Precip Events Conditions
12:15 AM 32.0 °F 24.2 °F 26.6 °F 80% 29.59 in 10.0 mi West 9.2 mph - N/A   Clear
12:35 AM 32.0 °F 24.8 °F 26.6 °F 80% 29.60 in 10.0 mi WSW 8.1 mph - N/A   Clear
12:55 AM 33.8 °F 24.8 °F 26.6 °F 75% 29.60 in 10.0 mi WSW 12.7 mph - N/A   Clear
1:15 AM 35.6 °F 25.9 °F 26.6 °F 70% 29.59 in 10.0 mi West 16.1 mph - N/A   Clear
1:35 AM 33.8 °F 24.3 °F 26.6 °F 75% 29.60 in 10.0 mi West 13.8 mph - N/A   Clear
1:55 AM 33.8 °F 23.5 °F 26.6 °F 75% 29.61 in 10.0 mi WNW 16.1 mph - N/A   Clear
2:15 AM 35.6 °F 24.8 °F 26.6 °F 70% 29.63 in 10.0 mi WNW 19.6 mph - N/A   Clear
2:35 AM 37.4 °F 26.6 °F 28.4 °F 70% 29.63 in 10.0 mi WNW 21.9 mph - N/A   Clear
2:55 AM 39.2 °F 29.6 °F 30.2 °F 70% 29.64 in 10.0 mi WNW 19.6 mph 26.5 mph N/A   Clear
3:15 AM 37.4 °F 27.5 °F 30.2 °F 75% 29.65 in 10.0 mi WNW 18.4 mph 24.2 mph N/A   Clear
3:35 AM 35.6 °F 27.1 °F 30.2 °F 81% 29.66 in 10.0 mi WNW 12.7 mph - N/A   Clear
3:55 AM 35.6 °F 26.2 °F 28.4 °F 75% 29.66 in 10.0 mi WNW 15.0 mph - N/A   Clear
4:15 AM 35.6 °F 26.6 °F 28.4 °F 75% 29.66 in 10.0 mi WNW 13.8 mph - N/A   Clear
4:35 AM 35.6 °F 26.6 °F 28.4 °F 75% 29.66 in 10.0 mi WNW 13.8 mph - N/A   Clear
4:55 AM 35.6 °F 25.9 °F 26.6 °F 70% 29.67 in 10.0 mi WNW 16.1 mph - N/A   Clear
5:15 AM 35.6 °F 25.9 °F 26.6 °F 70% 29.68 in 10.0 mi WNW 16.1 mph 20.7 mph N/A   Clear
5:55 AM 33.8 °F 24.3 °F 24.8 °F 70% 29.69 in 10.0 mi WNW 13.8 mph - N/A   Clear
6:15 AM 37.4 °F 28.2 °F 23.0 °F 56% 29.69 in 10.0 mi WNW 16.1 mph - N/A   Clear
6:35 AM 35.6 °F 27.5 °F 23.0 °F 60% 29.70 in 10.0 mi WNW 11.5 mph - N/A   Clear
6:55 AM 30.2 °F 21.3 °F 23.0 °F 75% 29.71 in 10.0 mi West 10.4 mph - N/A   Clear
7:15 AM 32.0 °F 23.0 °F 23.0 °F 69% 29.71 in 10.0 mi WNW 11.5 mph - N/A   Clear
7:35 AM 32.0 °F 22.5 °F 24.8 °F 75% 29.73 in 10.0 mi WNW 12.7 mph - N/A   Clear
7:55 AM 32.0 °F 21.6 °F 23.0 °F 69% 29.73 in 10.0 mi WNW 15.0 mph - N/A   Clear
8:15 AM 32.0 °F 21.6 °F 23.0 °F 69% 29.73 in 10.0 mi WNW 15.0 mph - N/A   Clear
8:35 AM 33.8 °F 24.3 °F 24.8 °F 70% 29.74 in 10.0 mi WNW 13.8 mph - N/A   Clear
8:55 AM 35.6 °F 26.6 °F 24.8 °F 65% 29.75 in 10.0 mi WNW 13.8 mph - N/A   Clear
9:15 AM 39.2 °F 30.5 °F 23.0 °F 52% 29.76 in 10.0 mi WNW 16.1 mph 20.7 mph N/A   Clear
9:35 AM 41.0 °F 33.5 °F 24.8 °F 53% 29.77 in 10.0 mi NW 13.8 mph - N/A   Clear
9:55 AM 42.8 °F 34.5 °F 23.0 °F 46% 29.77 in 10.0 mi NW 18.4 mph 24.2 mph N/A   Clear
10:15 AM 44.6 °F 36.6 °F 23.0 °F 43% 29.77 in 10.0 mi NW 19.6 mph 29.9 mph N/A   Clear
10:35 AM 44.6 °F 35.7 °F 21.2 °F 39% 29.77 in 10.0 mi NW 24.2 mph 29.9 mph N/A   Clear
10:55 AM 46.4 °F 38.1 °F 21.2 °F 37% 29.77 in 10.0 mi NW 24.2 mph 31.1 mph N/A   Clear
11:15 AM 46.4 °F 37.9 °F 21.2 °F 37% 29.77 in 10.0 mi NNW 25.3 mph 32.2 mph N/A   Clear
11:35 AM 48.2 °F - 19.4 °F 32% 29.77 in 10.0 mi NW 23.0 mph 28.8 mph N/A   Clear
11:55 AM 48.2 °F - 19.4 °F 32% 29.78 in 10.0 mi NNW 20.7 mph 29.9 mph N/A   Clear
12:15 PM 50.0 °F - 19.4 °F 30% 29.78 in 10.0 mi NW 17.3 mph - N/A   Clear
12:35 PM 50.0 °F - 19.4 °F 30% 29.78 in 10.0 mi NW 17.3 mph - N/A   Clear
12:55 PM 50.0 °F - 17.6 °F 28% 29.78 in 10.0 mi NNW 11.5 mph - N/A   Clear
1:35 PM 50.0 °F - 15.8 °F 26% 29.77 in 10.0 mi NW 12.7 mph 17.3 mph N/A   Clear
1:55 PM 50.0 °F - 14.0 °F 24% 29.78 in 10.0 mi NW 6.9 mph - N/A   Clear
2:15 PM 50.0 °F - 15.8 °F 26% 29.77 in 10.0 mi NW 5.8 mph - N/A   Clear
2:35 PM 50.0 °F - 14.0 °F 24% 29.77 in 10.0 mi NNW 5.8 mph - N/A   Clear
2:55 PM 50.0 °F - 14.0 °F 24% 29.77 in 10.0 mi NW 6.9 mph - N/A   Clear
3:55 PM 50.0 °F - 14.0 °F 24% 29.76 in 10.0 mi NNW 6.9 mph - N/A   Clear
4:15 PM 50.0 °F - 14.0 °F 24% 29.76 in 10.0 mi NW 4.6 mph - N/A   Clear
4:55 PM 44.6 °F - 19.4 °F 37% 29.76 in 10.0 mi Calm Calm - N/A   Clear
5:15 PM 44.6 °F - 14.0 °F 29% 29.76 in 10.0 mi Calm Calm - N/A   Clear
5:55 PM 42.8 °F - 12.2 °F 29% 29.76 in 10.0 mi Calm Calm - N/A   Clear
6:15 PM 42.8 °F - 12.2 °F 29% 29.76 in 10.0 mi Calm Calm - N/A   Clear
6:35 PM 37.4 °F - 14.0 °F 38% 29.76 in 10.0 mi Calm Calm - N/A   Clear
6:55 PM 41.0 °F - 12.2 °F 31% 29.77 in 10.0 mi Calm Calm - N/A   Clear
7:15 PM 39.2 °F - 12.2 °F 33% 29.76 in 10.0 mi Calm Calm - N/A   Clear
7:35 PM 33.8 °F 30.8 °F 14.0 °F 44% 29.76 in 10.0 mi SE 3.5 mph - N/A   Clear
7:55 PM 33.8 °F 29.6 °F 14.0 °F 44% 29.76 in 10.0 mi ESE 4.6 mph - N/A   Clear
8:15 PM 33.8 °F 28.6 °F 17.6 °F 52% 29.76 in 10.0 mi ESE 5.8 mph - N/A   Clear
8:35 PM 32.0 °F 26.4 °F 17.6 °F 55% 29.75 in 10.0 mi ESE 5.8 mph - N/A   Clear
8:55 PM 32.0 °F 26.4 °F 21.2 °F 64% 29.75 in 10.0 mi ESE 5.8 mph - N/A   Clear
9:15 PM 32.0 °F 25.6 °F 21.2 °F 64% 29.74 in 10.0 mi East 6.9 mph - N/A   Clear
9:35 PM 33.8 °F 28.6 °F 21.2 °F 60% 29.75 in 10.0 mi East 5.8 mph - N/A   Clear
9:55 PM 33.8 °F 29.6 °F 21.2 °F 60% 29.75 in 10.0 mi ESE 4.6 mph - N/A   Clear
10:15 PM 32.0 °F 26.4 °F 21.2 °F 64% 29.74 in 10.0 mi ESE 5.8 mph - N/A   Clear
10:35 PM 32.0 °F 27.5 °F 23.0 °F 69% 29.74 in 10.0 mi ESE 4.6 mph - N/A   Clear
10:55 PM 32.0 °F 26.4 °F 23.0 °F 69% 29.74 in 10.0 mi East 5.8 mph - N/A   Clear
11:15 PM 33.8 °F 27.0 °F 23.0 °F 65% 29.74 in 10.0 mi ESE 8.1 mph - N/A   Clear
11:35 PM 32.0 °F 24.8 °F 23.0 °F 69% 29.73 in 10.0 mi East 8.1 mph - N/A   Clear
11:55 PM 32.0 °F 25.6 °F 23.0 °F 69% 29.74 in 10.0 mi East 6.9 mph - N/A   Clear